createdAt,value
2023-05-10T00:00:16.620Z,423.00
2023-05-10T00:01:16.527Z,419.00
2023-05-10T00:02:16.705Z,418.00
2023-05-10T00:03:16.681Z,418.00
2023-05-10T00:04:16.777Z,418.00
2023-05-10T00:05:16.807Z,420.00
2023-05-10T00:06:16.761Z,421.00
2023-05-10T00:07:16.792Z,421.00
2023-05-10T00:08:17.255Z,421.00
2023-05-10T00:09:16.761Z,424.00
2023-05-10T00:10:16.978Z,421.00
2023-05-10T00:11:16.778Z,423.00
2023-05-10T00:12:16.793Z,425.00
2023-05-10T00:13:16.837Z,426.00
2023-05-10T00:14:17.771Z,427.00
2023-05-10T00:15:16.781Z,427.00
2023-05-10T00:16:16.780Z,426.00
2023-05-10T00:17:16.772Z,428.00
2023-05-10T00:18:16.770Z,425.00
2023-05-10T00:19:16.757Z,445.00
2023-05-10T00:20:18.157Z,428.00
2023-05-10T00:21:16.829Z,426.00
2023-05-10T00:22:16.895Z,428.00
2023-05-10T00:23:17.758Z,422.00
2023-05-10T00:24:17.003Z,426.00
2023-05-10T00:25:17.023Z,423.00
2023-05-10T00:26:17.156Z,424.00
2023-05-10T00:27:17.147Z,423.00
2023-05-10T00:28:17.220Z,421.00
2023-05-10T00:29:17.233Z,421.00
2023-05-10T00:30:17.457Z,428.00
2023-05-10T00:31:17.324Z,424.00
2023-05-10T00:32:17.431Z,422.00
2023-05-10T00:33:17.429Z,421.00
2023-05-10T00:34:17.390Z,422.00
2023-05-10T00:35:17.417Z,425.00
2023-05-10T00:36:17.454Z,427.00
2023-05-10T00:37:17.496Z,431.00
2023-05-10T00:38:17.507Z,430.00
2023-05-10T00:39:17.536Z,428.00
2023-05-10T00:40:17.942Z,426.00
2023-05-10T00:41:17.635Z,423.00
2023-05-10T00:42:17.689Z,425.00
2023-05-10T00:43:17.731Z,419.00
2023-05-10T00:44:17.733Z,419.00
2023-05-10T00:45:17.790Z,420.00
2023-05-10T00:46:17.862Z,422.00
2023-05-10T00:47:17.824Z,422.00
2023-05-10T00:48:17.905Z,425.00
2023-05-10T00:49:17.928Z,423.00
2023-05-10T00:50:18.133Z,422.00
2023-05-10T00:51:18.007Z,418.00
2023-05-10T00:52:18.111Z,421.00
2023-05-10T00:53:18.085Z,422.00
2023-05-10T00:54:18.116Z,422.00
2023-05-10T00:55:18.263Z,423.00
2023-05-10T00:56:18.182Z,421.00
2023-05-10T00:57:18.189Z,418.00
2023-05-10T00:58:18.187Z,419.00
2023-05-10T00:59:18.219Z,422.00
2023-05-10T01:00:18.337Z,421.00
2023-05-10T01:01:18.224Z,422.00
2023-05-10T01:02:18.202Z,423.00
2023-05-10T01:03:18.384Z,421.00
2023-05-10T01:04:18.161Z,424.00
2023-05-10T01:05:18.232Z,419.00
2023-05-10T01:06:18.147Z,417.00
2023-05-10T01:07:18.176Z,413.00
2023-05-10T01:08:18.141Z,413.00
2023-05-10T01:09:18.120Z,414.00
2023-05-10T01:10:18.370Z,414.00
2023-05-10T01:11:18.151Z,416.00
2023-05-10T01:12:18.269Z,416.00
2023-05-10T01:13:18.244Z,418.00
2023-05-10T01:14:18.196Z,417.00
2023-05-10T01:15:18.188Z,419.00
2023-05-10T01:16:18.273Z,417.00
2023-05-10T01:17:18.249Z,414.00
2023-05-10T01:18:18.316Z,413.00
2023-05-10T01:19:18.370Z,413.00
2023-05-10T01:20:18.597Z,415.00
2023-05-10T01:21:18.408Z,415.00
2023-05-10T01:22:18.451Z,416.00
2023-05-10T01:23:18.510Z,417.00
2023-05-10T01:24:18.578Z,413.00
2023-05-10T01:25:18.636Z,415.00
2023-05-10T01:26:18.673Z,417.00
2023-05-10T01:27:18.647Z,417.00
2023-05-10T01:28:18.672Z,418.00
2023-05-10T01:29:18.658Z,418.00
2023-05-10T01:30:18.652Z,413.00
2023-05-10T01:31:18.696Z,412.00
2023-05-10T01:32:18.660Z,414.00
2023-05-10T01:33:18.683Z,416.00
2023-05-10T01:34:18.865Z,416.00
2023-05-10T01:35:18.673Z,413.00
2023-05-10T01:36:19.285Z,415.00
2023-05-10T01:37:18.691Z,412.00
2023-05-10T01:38:18.647Z,412.00
2023-05-10T01:39:18.637Z,413.00
2023-05-10T01:40:18.680Z,413.00
2023-05-10T01:41:18.641Z,414.00
2023-05-10T01:42:18.641Z,417.00
2023-05-10T01:43:18.677Z,422.00
2023-05-10T01:44:18.714Z,424.00
2023-05-10T01:45:18.750Z,424.00
2023-05-10T01:46:18.847Z,421.00
2023-05-10T01:47:18.850Z,424.00
2023-05-10T01:48:18.871Z,427.00
2023-05-10T01:49:18.923Z,427.00
2023-05-10T01:50:19.261Z,425.00
2023-05-10T01:51:18.928Z,428.00
2023-05-10T01:52:18.968Z,430.00
2023-05-10T01:53:19.028Z,431.00
2023-05-10T01:54:19.078Z,423.00
2023-05-10T01:55:19.106Z,421.00
2023-05-10T01:56:19.170Z,425.00
2023-05-10T01:57:19.213Z,422.00
2023-05-10T01:58:19.266Z,425.00
2023-05-10T01:59:19.340Z,426.00
2023-05-10T02:00:19.414Z,426.00
2023-05-10T02:01:19.481Z,424.00
2023-05-10T02:02:19.552Z,422.00
2023-05-10T02:03:19.627Z,419.00
2023-05-10T02:04:19.582Z,418.00
2023-05-10T02:05:19.602Z,419.00
2023-05-10T02:06:19.640Z,418.00
2023-05-10T02:07:19.652Z,418.00
2023-05-10T02:08:19.706Z,418.00
2023-05-10T02:09:19.726Z,420.00
2023-05-10T02:10:19.765Z,423.00
2023-05-10T02:11:19.807Z,423.00
2023-05-10T02:12:19.849Z,423.00
2023-05-10T02:13:19.959Z,422.00
2023-05-10T02:14:20.832Z,426.00
2023-05-10T02:15:19.985Z,424.00
2023-05-10T02:16:20.094Z,425.00
2023-05-10T02:17:20.094Z,427.00
2023-05-10T02:18:20.098Z,421.00
2023-05-10T02:19:20.115Z,425.00
2023-05-10T02:20:20.338Z,422.00
2023-05-10T02:21:20.172Z,426.00
2023-05-10T02:22:20.164Z,428.00
2023-05-10T02:23:20.208Z,427.00
2023-05-10T02:24:20.234Z,428.00
2023-05-10T02:25:20.288Z,427.00
2023-05-10T02:26:20.373Z,426.00
2023-05-10T02:27:20.370Z,426.00
2023-05-10T02:28:21.211Z,423.00
2023-05-10T02:29:20.502Z,423.00
2023-05-10T02:30:20.485Z,425.00
2023-05-10T02:31:20.599Z,429.00
2023-05-10T02:32:20.577Z,431.00
2023-05-10T02:33:20.581Z,429.00
2023-05-10T02:34:20.604Z,427.00
2023-05-10T02:35:20.630Z,430.00
2023-05-10T02:36:20.628Z,429.00
2023-05-10T02:37:20.674Z,428.00
2023-05-10T02:38:21.323Z,428.00
2023-05-10T02:39:20.760Z,427.00
2023-05-10T02:40:20.780Z,428.00
2023-05-10T02:41:20.810Z,427.00
2023-05-10T02:42:20.824Z,424.00
2023-05-10T02:43:20.833Z,423.00
2023-05-10T02:44:20.874Z,422.00
2023-05-10T02:45:20.968Z,423.00
2023-05-10T02:46:21.016Z,426.00
2023-05-10T02:47:21.071Z,425.00
2023-05-10T02:48:21.795Z,429.00
2023-05-10T02:49:21.227Z,430.00
2023-05-10T02:50:21.214Z,430.00
2023-05-10T02:51:21.286Z,430.00
2023-05-10T02:52:21.361Z,430.00
2023-05-10T02:53:21.430Z,431.00
2023-05-10T02:54:21.477Z,429.00
2023-05-10T02:55:21.495Z,427.00
2023-05-10T02:56:21.566Z,428.00
2023-05-10T02:57:21.617Z,426.00
2023-05-10T02:58:21.626Z,427.00
2023-05-10T02:59:21.761Z,429.00
2023-05-10T03:00:21.745Z,428.00
2023-05-10T03:01:21.820Z,425.00
2023-05-10T03:02:21.903Z,423.00
2023-05-10T03:03:21.921Z,425.00
2023-05-10T03:04:21.990Z,423.00
2023-05-10T03:05:22.020Z,424.00
2023-05-10T03:06:22.132Z,425.00
2023-05-10T03:07:22.229Z,428.00
2023-05-10T03:08:22.229Z,427.00
2023-05-10T03:09:22.267Z,426.00
2023-05-10T03:10:22.354Z,428.00
2023-05-10T03:11:22.369Z,430.00
2023-05-10T03:12:22.430Z,431.00
2023-05-10T03:13:22.605Z,431.00
2023-05-10T03:14:22.546Z,432.00
2023-05-10T03:15:22.617Z,434.00
2023-05-10T03:16:22.753Z,433.00
2023-05-10T03:17:22.830Z,430.00
2023-05-10T03:18:22.748Z,428.00
2023-05-10T03:19:22.828Z,428.00
2023-05-10T03:20:22.823Z,428.00
2023-05-10T03:21:22.891Z,428.00
2023-05-10T03:22:23.096Z,429.00
2023-05-10T03:23:23.097Z,429.00
2023-05-10T03:24:23.136Z,428.00
2023-05-10T03:25:23.180Z,428.00
2023-05-10T03:26:23.208Z,425.00
2023-05-10T03:27:23.221Z,427.00
2023-05-10T03:28:23.218Z,426.00
2023-05-10T03:29:23.305Z,427.00
2023-05-10T03:30:26.280Z,428.00
2023-05-10T03:31:23.385Z,430.00
2023-05-10T03:32:23.362Z,430.00
2023-05-10T03:33:23.332Z,431.00
2023-05-10T03:34:23.330Z,433.00
2023-05-10T03:35:23.334Z,436.00
2023-05-10T03:36:23.358Z,436.00
2023-05-10T03:37:23.371Z,434.00
2023-05-10T03:38:23.463Z,434.00
2023-05-10T03:39:23.371Z,434.00
2023-05-10T03:40:23.385Z,435.00
2023-05-10T03:41:23.420Z,434.00
2023-05-10T03:42:23.445Z,437.00
2023-05-10T03:43:23.420Z,438.00
2023-05-10T03:44:23.463Z,434.00
2023-05-10T03:45:23.417Z,436.00
2023-05-10T03:46:23.488Z,438.00
2023-05-10T03:47:23.454Z,438.00
2023-05-10T03:48:23.488Z,438.00
2023-05-10T03:49:23.497Z,439.00
2023-05-10T03:50:23.507Z,438.00
2023-05-10T03:51:23.529Z,436.00
2023-05-10T03:52:23.536Z,431.00
2023-05-10T03:53:23.533Z,432.00
2023-05-10T03:54:23.531Z,430.00
2023-05-10T03:55:23.538Z,430.00
2023-05-10T03:56:23.559Z,429.00
2023-05-10T03:57:23.536Z,429.00
2023-05-10T03:58:23.550Z,431.00
2023-05-10T03:59:23.620Z,428.00
2023-05-10T04:00:23.552Z,429.00
2023-05-10T04:01:23.541Z,426.00
2023-05-10T04:02:23.633Z,425.00
2023-05-10T04:03:23.610Z,428.00
2023-05-10T04:04:23.548Z,428.00
2023-05-10T04:05:23.559Z,428.00
2023-05-10T04:06:23.617Z,428.00
2023-05-10T04:07:23.562Z,427.00
2023-05-10T04:08:23.586Z,428.00
2023-05-10T04:09:23.589Z,428.00
2023-05-10T04:10:23.595Z,430.00
2023-05-10T04:11:23.661Z,432.00
2023-05-10T04:12:23.632Z,435.00
2023-05-10T04:13:23.689Z,433.00
2023-05-10T04:14:23.814Z,429.00
2023-05-10T04:15:23.695Z,428.00
2023-05-10T04:16:23.760Z,428.00
2023-05-10T04:17:23.748Z,429.00
2023-05-10T04:18:23.717Z,426.00
2023-05-10T04:19:23.742Z,430.00
2023-05-10T04:20:23.749Z,430.00
2023-05-10T04:21:23.825Z,430.00
2023-05-10T04:22:23.785Z,428.00
2023-05-10T04:23:23.806Z,430.00
2023-05-10T04:24:23.822Z,426.00
2023-05-10T04:25:23.825Z,426.00
2023-05-10T04:26:23.884Z,429.00
2023-05-10T04:27:23.862Z,430.00
2023-05-10T04:28:23.935Z,431.00
2023-05-10T04:29:23.957Z,433.00
2023-05-10T04:30:23.918Z,433.00
2023-05-10T04:31:24.033Z,430.00
2023-05-10T04:32:24.036Z,431.00
2023-05-10T04:33:23.970Z,431.00
2023-05-10T04:34:24.003Z,431.00
2023-05-10T04:35:24.105Z,433.00
2023-05-10T04:36:24.146Z,432.00
2023-05-10T04:37:24.191Z,427.00
2023-05-10T04:38:24.215Z,427.00
2023-05-10T04:39:24.220Z,426.00
2023-05-10T04:40:24.227Z,429.00
2023-05-10T04:41:24.321Z,431.00
2023-05-10T04:42:24.285Z,433.00
2023-05-10T04:43:24.273Z,434.00
2023-05-10T04:44:24.281Z,433.00
2023-05-10T04:45:24.882Z,431.00
2023-05-10T04:46:24.470Z,430.00
2023-05-10T04:47:24.345Z,429.00
2023-05-10T04:48:24.350Z,429.00
2023-05-10T04:49:24.402Z,428.00
2023-05-10T04:50:24.392Z,429.00
2023-05-10T04:51:24.379Z,431.00
2023-05-10T04:52:24.422Z,430.00
2023-05-10T04:53:24.383Z,430.00
2023-05-10T04:54:24.418Z,433.00
2023-05-10T04:55:24.407Z,432.00
2023-05-10T04:56:24.461Z,430.00
2023-05-10T04:57:26.323Z,429.00
2023-05-10T04:58:24.421Z,430.00
2023-05-10T04:59:24.426Z,430.00
2023-05-10T05:00:24.445Z,430.00
2023-05-10T05:01:24.513Z,433.00
2023-05-10T05:02:24.432Z,432.00
2023-05-10T05:03:24.644Z,432.00
2023-05-10T05:04:24.465Z,430.00
2023-05-10T05:05:25.330Z,429.00
2023-05-10T05:06:24.445Z,428.00
2023-05-10T05:07:25.342Z,427.00
2023-05-10T05:08:24.446Z,427.00
2023-05-10T05:09:24.562Z,426.00
2023-05-10T05:10:24.476Z,429.00
2023-05-10T05:11:25.512Z,429.00
2023-05-10T05:12:24.525Z,428.00
2023-05-10T05:13:24.727Z,428.00
2023-05-10T05:14:24.907Z,429.00
2023-05-10T05:15:24.618Z,431.00
2023-05-10T05:16:24.712Z,432.00
2023-05-10T05:17:24.635Z,429.00
2023-05-10T05:18:24.680Z,431.00
2023-05-10T05:19:24.739Z,431.00
2023-05-10T05:20:24.848Z,429.00
2023-05-10T05:21:24.818Z,430.00
2023-05-10T05:22:24.850Z,433.00
2023-05-10T05:23:24.954Z,432.00
2023-05-10T05:24:24.991Z,432.00
2023-05-10T05:25:25.024Z,432.00
2023-05-10T05:26:25.088Z,429.00
2023-05-10T05:27:25.119Z,427.00
2023-05-10T05:28:25.313Z,429.00
2023-05-10T05:29:26.260Z,430.00
2023-05-10T05:30:25.276Z,428.00
2023-05-10T05:31:25.329Z,428.00
2023-05-10T05:32:25.376Z,433.00
2023-05-10T05:33:25.936Z,435.00
2023-05-10T05:34:25.461Z,435.00
2023-05-10T05:35:27.676Z,436.00
2023-05-10T05:36:26.634Z,436.00
2023-05-10T05:37:25.623Z,438.00
2023-05-10T05:38:25.685Z,444.00
2023-05-10T05:39:25.844Z,441.00
2023-05-10T05:40:25.808Z,439.00
2023-05-10T05:41:25.946Z,436.00
2023-05-10T05:42:25.992Z,433.00
2023-05-10T05:43:25.953Z,432.00
2023-05-10T05:44:26.839Z,426.00
2023-05-10T05:45:26.012Z,428.00
2023-05-10T05:46:28.907Z,428.00
2023-05-10T05:47:26.046Z,432.00
2023-05-10T05:48:26.969Z,429.00
2023-05-10T05:49:26.022Z,430.00
2023-05-10T05:50:26.085Z,429.00
2023-05-10T05:51:26.066Z,428.00
2023-05-10T05:52:26.034Z,429.00
2023-05-10T05:53:26.030Z,429.00
2023-05-10T05:54:26.104Z,429.00
2023-05-10T05:55:26.070Z,428.00
2023-05-10T05:56:26.057Z,427.00
2023-05-10T05:57:26.028Z,431.00
2023-05-10T05:58:26.360Z,429.00
2023-05-10T05:59:26.107Z,427.00
2023-05-10T06:00:25.999Z,426.00
2023-05-10T06:01:26.005Z,426.00
2023-05-10T06:02:26.091Z,424.00
2023-05-10T06:03:26.120Z,420.00
2023-05-10T06:04:26.727Z,418.00
2023-05-10T06:05:26.011Z,418.00
2023-05-10T06:06:26.928Z,418.00
2023-05-10T06:07:25.975Z,418.00
2023-05-10T06:08:26.011Z,416.00
2023-05-10T06:09:26.012Z,414.00
2023-05-10T06:10:25.987Z,414.00
2023-05-10T06:11:25.959Z,413.00
2023-05-10T06:12:25.982Z,414.00
2023-05-10T06:13:26.021Z,412.00
2023-05-10T06:14:26.091Z,415.00
2023-05-10T06:15:27.887Z,417.00
2023-05-10T06:16:26.069Z,422.00
2023-05-10T06:17:26.238Z,422.00
2023-05-10T06:18:26.132Z,424.00
2023-05-10T06:19:26.174Z,427.00
2023-05-10T06:20:26.156Z,429.00
2023-05-10T06:21:26.148Z,426.00
2023-05-10T06:22:26.857Z,422.00
2023-05-10T06:23:26.208Z,422.00
2023-05-10T06:24:26.245Z,421.00
2023-05-10T06:25:26.306Z,423.00
2023-05-10T06:26:26.369Z,418.00
2023-05-10T06:27:26.415Z,428.00
2023-05-10T06:28:26.420Z,428.00
2023-05-10T06:29:27.430Z,448.00
2023-05-10T06:30:26.529Z,419.00
2023-05-10T06:31:26.572Z,416.00
2023-05-10T06:32:26.698Z,424.00
2023-05-10T06:33:27.499Z,414.00
2023-05-10T06:34:26.759Z,421.00
2023-05-10T06:35:26.734Z,418.00
2023-05-10T06:36:26.782Z,418.00
2023-05-10T06:37:26.810Z,418.00
2023-05-10T06:38:26.813Z,420.00
2023-05-10T06:39:26.873Z,421.00
2023-05-10T06:40:27.785Z,419.00
2023-05-10T06:41:29.960Z,408.00
2023-05-10T06:42:26.955Z,417.00
2023-05-10T06:43:26.966Z,415.00
2023-05-10T06:44:27.020Z,414.00
2023-05-10T06:45:27.071Z,412.00
2023-05-10T06:46:28.000Z,411.00
2023-05-10T06:47:26.996Z,417.00
2023-05-10T06:48:27.937Z,418.00
2023-05-10T06:49:27.385Z,416.00
2023-05-10T06:50:26.939Z,416.00
2023-05-10T06:51:26.966Z,417.00
2023-05-10T06:52:27.491Z,424.00
2023-05-10T06:53:27.934Z,420.00
2023-05-10T06:54:27.032Z,420.00
2023-05-10T06:55:29.964Z,418.00
2023-05-10T06:56:26.977Z,417.00
2023-05-10T06:57:31.814Z,413.00
2023-05-10T06:58:27.053Z,413.00
2023-05-10T06:59:27.058Z,411.00
2023-05-10T07:00:27.447Z,412.00
2023-05-10T07:01:27.186Z,416.00
2023-05-10T07:02:27.011Z,416.00
2023-05-10T07:03:27.706Z,409.00
2023-05-10T07:04:27.040Z,406.00
2023-05-10T07:05:27.427Z,404.00
2023-05-10T07:06:33.514Z,416.00
2023-05-10T07:07:28.540Z,412.00
2023-05-10T07:08:27.640Z,412.00
2023-05-10T07:09:26.838Z,412.00
2023-05-10T07:10:27.988Z,412.00
2023-05-10T07:11:27.605Z,412.00
2023-05-10T07:12:26.754Z,407.00
2023-05-10T07:13:27.467Z,405.00
2023-05-10T07:14:26.777Z,402.00
2023-05-10T07:15:27.489Z,402.00
2023-05-10T07:16:26.876Z,405.00
2023-05-10T07:17:26.747Z,432.00
2023-05-10T07:18:26.919Z,420.00
2023-05-10T07:19:26.830Z,413.00
2023-05-10T07:20:26.680Z,413.00
2023-05-10T07:21:26.739Z,413.00
2023-05-10T07:22:26.785Z,411.00
2023-05-10T07:23:26.791Z,411.00
2023-05-10T07:24:26.818Z,405.00
2023-05-10T07:25:27.408Z,406.00
2023-05-10T07:26:26.891Z,407.00
2023-05-10T07:27:27.034Z,405.00
2023-05-10T07:28:27.368Z,414.00
2023-05-10T07:29:27.076Z,415.00
2023-05-10T07:30:28.862Z,414.00
2023-05-10T07:31:27.966Z,414.00
2023-05-10T07:32:28.008Z,413.00
2023-05-10T07:33:28.370Z,412.00
2023-05-10T07:34:27.109Z,413.00
2023-05-10T07:35:27.443Z,416.00
2023-05-10T07:36:27.049Z,419.00
2023-05-10T07:37:28.063Z,419.00
2023-05-10T07:38:27.013Z,416.00
2023-05-10T07:39:28.191Z,415.00
2023-05-10T07:40:27.029Z,413.00
2023-05-10T07:41:27.240Z,411.00
2023-05-10T07:42:26.986Z,412.00
2023-05-10T07:43:27.020Z,411.00
2023-05-10T07:44:26.993Z,408.00
2023-05-10T07:45:28.463Z,409.00
2023-05-10T07:46:26.947Z,409.00
2023-05-10T07:47:26.929Z,411.00
2023-05-10T07:48:26.864Z,408.00
2023-05-10T07:49:26.869Z,408.00
2023-05-10T07:50:26.830Z,410.00
2023-05-10T07:51:26.858Z,406.00
2023-05-10T07:52:26.833Z,404.00
2023-05-10T07:53:26.793Z,410.00
2023-05-10T07:54:26.808Z,403.00
2023-05-10T07:55:27.992Z,407.00
2023-05-10T07:56:26.732Z,409.00
2023-05-10T07:57:26.766Z,410.00
2023-05-10T07:58:26.772Z,422.00
2023-05-10T07:59:26.739Z,414.00
2023-05-10T08:00:26.786Z,407.00
2023-05-10T08:01:26.835Z,417.00
2023-05-10T08:02:28.495Z,407.00
2023-05-10T08:03:26.956Z,410.00
2023-05-10T08:04:26.989Z,408.00
2023-05-10T08:05:26.975Z,406.00
2023-05-10T08:06:26.986Z,411.00
2023-05-10T08:07:27.053Z,412.00
2023-05-10T08:08:27.056Z,415.00
2023-05-10T08:09:27.096Z,416.00
2023-05-10T08:10:27.167Z,418.00
2023-05-10T08:11:27.071Z,414.00
2023-05-10T08:12:27.042Z,408.00
2023-05-10T08:13:27.066Z,406.00
2023-05-10T08:14:26.964Z,416.00
2023-05-10T08:15:28.284Z,415.00
2023-05-10T08:16:26.931Z,403.00
2023-05-10T08:17:26.946Z,407.00
2023-05-10T08:18:26.854Z,419.00
2023-05-10T08:19:26.878Z,424.00
2023-05-10T08:20:27.393Z,410.00
2023-05-10T08:21:26.811Z,407.00
2023-05-10T08:22:26.775Z,410.00
2023-05-10T08:23:26.709Z,411.00
2023-05-10T08:24:26.749Z,414.00
2023-05-10T08:25:26.782Z,414.00
2023-05-10T08:26:26.789Z,417.00
2023-05-10T08:27:26.877Z,415.00
2023-05-10T08:28:26.882Z,442.00
2023-05-10T08:29:28.521Z,406.00
2023-05-10T08:30:26.866Z,436.00
2023-05-10T08:31:26.856Z,424.00
2023-05-10T08:32:26.802Z,422.00
2023-05-10T08:33:26.780Z,423.00
2023-05-10T08:34:26.823Z,415.00
2023-05-10T08:35:34.879Z,410.00
2023-05-10T08:36:26.730Z,427.00
2023-05-10T08:37:26.652Z,414.00
2023-05-10T08:38:26.670Z,428.00
2023-05-10T08:39:30.302Z,423.00
2023-05-10T08:40:26.607Z,404.00
2023-05-10T08:41:27.082Z,406.00
2023-05-10T08:42:26.569Z,404.00
2023-05-10T08:43:26.534Z,398.00
2023-05-10T08:44:27.396Z,411.00
2023-05-10T08:45:26.893Z,409.00
2023-05-10T08:46:26.510Z,446.00
2023-05-10T08:47:26.535Z,420.00
2023-05-10T08:48:26.446Z,406.00
2023-05-10T08:49:26.454Z,438.00
2023-05-10T08:50:26.433Z,428.00
2023-05-10T08:51:26.434Z,409.00
2023-05-10T08:52:26.442Z,406.00
2023-05-10T08:53:26.422Z,392.00
2023-05-10T08:54:26.493Z,415.00
2023-05-10T08:55:26.462Z,409.00
2023-05-10T08:56:26.489Z,416.00
2023-05-10T08:57:26.476Z,410.00
2023-05-10T08:58:26.432Z,417.00
2023-05-10T08:59:26.418Z,415.00
2023-05-10T09:00:26.475Z,410.00
2023-05-10T09:01:26.414Z,414.00
2023-05-10T09:02:26.345Z,413.00
2023-05-10T09:03:26.943Z,414.00
2023-05-10T09:04:26.483Z,417.00
2023-05-10T09:05:26.361Z,419.00
2023-05-10T09:06:26.314Z,422.00
2023-05-10T09:07:26.249Z,420.00
2023-05-10T09:08:26.248Z,418.00
2023-05-10T09:09:26.283Z,409.00
2023-05-10T09:10:26.245Z,406.00
2023-05-10T09:11:26.248Z,409.00
2023-05-10T09:12:26.249Z,412.00
2023-05-10T09:13:26.245Z,402.00
2023-05-10T09:14:26.227Z,408.00
2023-05-10T09:15:26.254Z,401.00
2023-05-10T09:16:26.304Z,412.00
2023-05-10T09:17:26.298Z,406.00
2023-05-10T09:18:28.039Z,412.00
2023-05-10T09:19:26.205Z,388.00
2023-05-10T09:20:26.225Z,418.00
2023-05-10T09:21:26.332Z,415.00
2023-05-10T09:22:26.253Z,408.00
2023-05-10T09:23:26.266Z,413.00
2023-05-10T09:24:26.304Z,409.00
2023-05-10T09:25:26.302Z,408.00
2023-05-10T09:26:26.341Z,413.00
2023-05-10T09:27:26.344Z,420.00
2023-05-10T09:28:26.366Z,414.00
2023-05-10T09:29:26.454Z,400.00
2023-05-10T09:30:26.521Z,420.00
2023-05-10T09:31:26.656Z,416.00
2023-05-10T09:32:26.805Z,418.00
2023-05-10T09:33:26.669Z,434.00
2023-05-10T09:34:26.693Z,419.00
2023-05-10T09:35:28.836Z,405.00
2023-05-10T09:36:26.969Z,412.00
2023-05-10T09:37:26.829Z,420.00
2023-05-10T09:38:26.813Z,415.00
2023-05-10T09:39:26.958Z,414.00
2023-05-10T09:40:27.418Z,416.00
2023-05-10T09:41:26.878Z,406.00
2023-05-10T09:42:26.936Z,430.00
2023-05-10T09:43:26.916Z,415.00
2023-05-10T09:44:27.909Z,412.00
2023-05-10T09:45:26.989Z,411.00
2023-05-10T09:46:27.109Z,418.00
2023-05-10T09:47:27.019Z,415.00
2023-05-10T09:48:26.995Z,400.00
2023-05-10T09:49:27.951Z,425.00
2023-05-10T09:50:27.061Z,418.00
2023-05-10T09:51:27.387Z,416.00
2023-05-10T09:52:27.070Z,424.00
2023-05-10T09:53:27.154Z,426.00
2023-05-10T09:54:27.324Z,419.00
2023-05-10T09:55:27.157Z,425.00
2023-05-10T09:56:27.894Z,421.00
2023-05-10T09:57:27.957Z,417.00
2023-05-10T09:58:27.923Z,414.00
2023-05-10T09:59:27.135Z,419.00
2023-05-10T10:00:27.124Z,413.00
2023-05-10T10:01:27.257Z,414.00
2023-05-10T10:02:28.920Z,401.00
2023-05-10T10:03:29.756Z,410.00
2023-05-10T10:04:27.267Z,434.00
2023-05-10T10:05:27.458Z,427.00
2023-05-10T10:06:30.445Z,429.00
2023-05-10T10:07:27.239Z,414.00
2023-05-10T10:08:27.961Z,416.00
2023-05-10T10:09:27.166Z,418.00
2023-05-10T10:10:27.218Z,417.00
2023-05-10T10:11:28.071Z,424.00
2023-05-10T10:12:27.219Z,427.00
2023-05-10T10:13:27.931Z,428.00
2023-05-10T10:14:27.240Z,424.00
2023-05-10T10:15:27.224Z,422.00
2023-05-10T10:16:27.402Z,420.00
2023-05-10T10:17:27.307Z,424.00
2023-05-10T10:18:27.248Z,425.00
2023-05-10T10:19:27.936Z,418.00
2023-05-10T10:20:27.184Z,424.00
2023-05-10T10:21:27.898Z,419.00
2023-05-10T10:22:27.183Z,424.00
2023-05-10T10:23:27.122Z,423.00
2023-05-10T10:24:27.944Z,424.00
2023-05-10T10:25:27.095Z,423.00
2023-05-10T10:26:27.112Z,419.00
2023-05-10T10:27:27.058Z,420.00
2023-05-10T10:28:28.412Z,411.00
2023-05-10T10:29:27.072Z,460.00
2023-05-10T10:30:27.168Z,429.00
2023-05-10T10:31:27.233Z,415.00
2023-05-10T10:32:27.934Z,414.00
2023-05-10T10:33:28.884Z,411.00
2023-05-10T10:34:27.025Z,414.00
2023-05-10T10:35:27.185Z,418.00
2023-05-10T10:36:27.354Z,426.00
2023-05-10T10:37:31.012Z,416.00
2023-05-10T10:38:29.179Z,414.00
2023-05-10T10:39:27.252Z,416.00
2023-05-10T10:40:27.053Z,417.00
2023-05-10T10:41:27.190Z,413.00
2023-05-10T10:42:27.059Z,416.00
2023-05-10T10:43:27.536Z,418.00
2023-05-10T10:44:27.196Z,418.00
2023-05-10T10:45:27.061Z,418.00
2023-05-10T10:46:27.461Z,418.00
2023-05-10T10:47:27.149Z,414.00
2023-05-10T10:48:28.322Z,417.00
2023-05-10T10:49:27.125Z,416.00
2023-05-10T10:50:27.163Z,416.00
2023-05-10T10:51:26.916Z,421.00
2023-05-10T10:52:26.867Z,414.00
2023-05-10T10:53:26.908Z,416.00
2023-05-10T10:54:26.841Z,415.00
2023-05-10T10:55:26.969Z,411.00
2023-05-10T10:56:26.830Z,416.00
2023-05-10T10:57:26.777Z,416.00
2023-05-10T10:58:26.750Z,414.00
2023-05-10T10:59:26.744Z,413.00
2023-05-10T11:00:26.714Z,415.00
2023-05-10T11:01:26.722Z,414.00
2023-05-10T11:02:26.665Z,412.00
2023-05-10T11:03:26.699Z,408.00
2023-05-10T11:04:26.656Z,448.00
2023-05-10T11:05:26.584Z,412.00
2023-05-10T11:06:26.565Z,428.00
2023-05-10T11:07:26.564Z,421.00
2023-05-10T11:08:26.514Z,418.00
2023-05-10T11:09:26.454Z,417.00
2023-05-10T11:10:26.428Z,415.00
2023-05-10T11:11:26.419Z,414.00
2023-05-10T11:12:26.358Z,406.00
2023-05-10T11:13:26.363Z,408.00
2023-05-10T11:14:32.985Z,403.00
2023-05-10T11:15:26.296Z,408.00
2023-05-10T11:16:26.861Z,410.00
2023-05-10T11:17:26.273Z,412.00
2023-05-10T11:18:26.212Z,411.00
2023-05-10T11:19:26.207Z,406.00
2023-05-10T11:20:26.289Z,403.00
2023-05-10T11:21:26.231Z,408.00
2023-05-10T11:22:26.275Z,425.00
2023-05-10T11:23:26.138Z,407.00
2023-05-10T11:24:26.981Z,402.00
2023-05-10T11:25:26.138Z,420.00
2023-05-10T11:26:26.157Z,411.00
2023-05-10T11:27:26.280Z,417.00
2023-05-10T11:28:28.946Z,399.00
2023-05-10T11:29:26.053Z,403.00
2023-05-10T11:30:26.014Z,443.00
2023-05-10T11:31:26.047Z,410.00
2023-05-10T11:32:26.082Z,412.00
2023-05-10T11:33:26.056Z,407.00
2023-05-10T11:34:26.023Z,392.00
2023-05-10T11:35:26.937Z,413.00
2023-05-10T11:36:26.491Z,416.00
2023-05-10T11:37:27.205Z,415.00
2023-05-10T11:38:25.958Z,420.00
2023-05-10T11:39:25.926Z,419.00
2023-05-10T11:40:25.898Z,401.00
2023-05-10T11:41:25.902Z,417.00
2023-05-10T11:42:25.890Z,425.00
2023-05-10T11:43:25.859Z,414.00
2023-05-10T11:44:25.814Z,402.00
2023-05-10T11:45:25.839Z,420.00
2023-05-10T11:46:25.864Z,421.00
2023-05-10T11:47:25.837Z,413.00
2023-05-10T11:48:25.743Z,411.00
2023-05-10T11:49:25.773Z,412.00
2023-05-10T11:50:25.794Z,404.00
2023-05-10T11:51:25.710Z,413.00
2023-05-10T11:52:26.425Z,424.00
2023-05-10T11:53:27.040Z,415.00
2023-05-10T11:54:25.685Z,414.00
2023-05-10T11:55:25.674Z,417.00
2023-05-10T11:56:25.684Z,414.00
2023-05-10T11:57:25.647Z,410.00
2023-05-10T11:58:25.695Z,413.00
2023-05-10T11:59:25.628Z,410.00
2023-05-10T12:00:25.597Z,409.00
2023-05-10T12:01:25.975Z,404.00
2023-05-10T12:02:25.871Z,409.00
2023-05-10T12:03:25.758Z,421.00
2023-05-10T12:04:25.755Z,412.00
2023-05-10T12:05:25.613Z,412.00
2023-05-10T12:06:25.628Z,410.00
2023-05-10T12:07:25.580Z,406.00
2023-05-10T12:08:25.593Z,415.00
2023-05-10T12:09:39.687Z,421.00
2023-05-10T12:10:26.530Z,418.00
2023-05-10T12:11:25.523Z,418.00
2023-05-10T12:12:26.447Z,412.00
2023-05-10T12:13:25.495Z,407.00
2023-05-10T12:14:25.508Z,405.00
2023-05-10T12:15:25.561Z,420.00
2023-05-10T12:16:26.471Z,403.00
2023-05-10T12:17:26.500Z,409.00
2023-05-10T12:18:25.548Z,414.00
2023-05-10T12:19:25.473Z,412.00
2023-05-10T12:20:25.462Z,407.00
2023-05-10T12:21:25.795Z,407.00
2023-05-10T12:22:25.455Z,406.00
2023-05-10T12:23:25.563Z,414.00
2023-05-10T12:24:25.487Z,409.00
2023-05-10T12:25:26.477Z,405.00
2023-05-10T12:26:25.623Z,409.00
2023-05-10T12:27:25.631Z,400.00
2023-05-10T12:28:25.875Z,411.00